• Join FlightAware (Why Join?)
  • Login
  • US Flag 
08:05PM EDT


 

Airport Tracker/Info


-or-


 

Live Flight TrackerFlight Track Log ✈ SWA1796 ✈ 19-Sep-2013 ✈ KLAS - KSNA

Flight Track Log - Related Links

Times and Time Zones

All times are in EDT time to prevent confusion due to time zone crossing. See the SWA1796 flight status page for this flight to view local times or setup timezone preferences in your user account.

Time Position Orientation Groundspeed Altitude Reporting Facility
EDT Latitude Longitude Course Direction KTS MPH feet Rate Location/Type
09:40AM 36.0756 -115.1658 258° West 163 188 3,600  Level Los Angeles Center
09:42AM 36.0606 -115.2558 258° West 257 296 5,900 1,440 Climbing Los Angeles Center
09:42AM 36.0569 -115.2581 206° Southwest 245 282 6,000 3,540 Climbing Los Angeles Center
09:43AM 35.9769 -115.2992 203° Southwest 294 338 9,900 4,380 Climbing Los Angeles Center
09:43AM 35.9644 -115.3008 186° South 289 333 10,500 2,580 Climbing Los Angeles Center
09:44AM 35.8708 -115.3125 186° South 323 372 13,700 3,420 Climbing Los Angeles Center
09:45AM 35.7497 -115.3025 176° South 360 414 18,300 3,720 Climbing Los Angeles Center
09:46AM 35.6497 -115.3317 193° South 380 437 21,400 2,760 Climbing Los Angeles Center
09:47AM 35.5772 -115.4308 228° Southwest 386 444 24,000 3,180 Climbing Los Angeles Center
09:48AM 35.4931 -115.5442 228° Southwest 375 432 28,000 1,920 Climbing Los Angeles Center
09:49AM 35.4333 -115.6247 228° Southwest 368 423 28,000  Level Los Angeles Center
09:50AM 35.3633 -115.7169 227° Southwest 370 426 28,000  Level Los Angeles Center
09:51AM 35.2933 -115.8111 228° Southwest 372 428 28,000  Level Los Angeles Center
09:52AM 35.2011 -115.9306 227° Southwest 399 459 28,000  Level Los Angeles Center
09:54AM 35.1267 -116.0306 228° Southwest 398 458 28,000  Level Los Angeles Center
09:55AM 35.0367 -116.1503 227° Southwest 400 460 28,000  Level Los Angeles Center
09:56AM 34.9603 -116.2497 227° Southwest 401 461 28,000  Level Los Angeles Center
09:57AM 34.8842 -116.3483 227° Southwest 400 460 28,000  Level Los Angeles Center
09:58AM 34.8083 -116.4478 227° Southwest 400 460 28,000  Level Los Angeles Center
10:00AM 34.6517 -116.6406 225° Southwest 400 460 28,000 -1,080 Level Los Angeles Center
10:01AM 34.5731 -116.7372 225° Southwest 401 461 24,700 -3,420 Descending Los Angeles Center
10:02AM 34.4772 -116.8533 225° Southwest 404 465 21,000 -3,360 Descending Los Angeles Center
10:03AM 34.4003 -116.9478 225° Southwest 395 455 17,900 -2,940 Descending Los Angeles Center
10:04AM 34.3250 -117.0381 225° Southwest 383 441 15,000 -2,400 Descending Los Angeles Center
10:05AM 34.2442 -117.1125 217° Southwest 373 429 13,000 -1,020 Descending Los Angeles Center
10:06AM 34.1514 -117.1292 188° South 338 389 13,000  Level Los Angeles Center
10:07AM 34.0667 -117.1500 192° South 339 390 13,000 -1,080 Level Southern California TRACON
10:08AM 33.9833 -117.1833 198° South 335 386 11,100 -1,500 Descending Southern California TRACON
10:09AM 33.9000 -117.2167 198° South 315 362 10,000 -540 Descending Southern California TRACON
10:10AM 33.8667 -117.3167 248° West 319 367 10,000 -60 Level Southern California TRACON
10:11AM 33.8333 -117.4000 244° Southwest 298 343 9,900 -780 Descending Southern California TRACON
10:12AM 33.8167 -117.4833 256° West 288 331 8,700 -960 Descending Southern California TRACON
10:13AM 33.7833 -117.5667 244° Southwest 259 298 8,100 -600 Descending Southern California TRACON
10:13AM 33.7839 -117.5986 271° West 262 302 7,800 -1,140 Descending Los Angeles Center
10:14AM 33.8000 -117.6500 291° West 237 273 7,000 -1,320 Descending Southern California TRACON
10:14AM 33.8333 -117.7000 309° West 226 260 6,000 -1,680 Descending Southern California TRACON
10:15AM 33.8333 -117.7667 270° West 222 255 3,900 -1,500 Descending Southern California TRACON
10:16AM 33.8000 -117.7833 203° Southwest 178 205 3,300 -1,140 Descending Southern California TRACON
10:17AM 33.7667 -117.8167 220° Southwest 146 168 1,900 -1,080 Descending Southern California TRACON
10:18AM 33.7333 -117.8333 203° Southwest 121 139 1,200 -720 Descending Southern California TRACON
10:19AM 33.7000 -117.8500 203° Southwest 131 151 500 -720 Descending Southern California TRACON
10:22AM 33.6757 -117.8682 132° Southeast  Level Estimated
10:29AM 33.6757 -117.8682 132° Southeast  Level Estimated